createdAt,value
2022-12-23T00:01:32.659Z,2.10
2022-12-23T00:04:03.579Z,1.80
2022-12-23T00:06:34.319Z,1.80
2022-12-23T00:09:05.259Z,1.70
2022-12-23T00:11:35.940Z,1.50
2022-12-23T00:14:24.556Z,1.50
2022-12-23T00:16:55.481Z,1.40
2022-12-23T00:19:26.350Z,1.90
2022-12-23T00:21:57.062Z,1.50
2022-12-23T00:24:27.906Z,1.90
2022-12-23T00:26:58.539Z,1.70
2022-12-23T00:29:29.283Z,2.40
2022-12-23T00:32:00.026Z,1.50
2022-12-23T00:34:30.792Z,1.70
2022-12-23T00:37:01.457Z,1.50
2022-12-23T00:39:54.625Z,1.90
2022-12-23T00:42:43.588Z,1.50
2022-12-23T00:45:17.077Z,1.80
2022-12-23T00:48:06.785Z,1.60
2022-12-23T00:50:39.446Z,1.70
2022-12-23T00:53:10.432Z,1.50
2022-12-23T00:55:41.123Z,1.70
2022-12-23T00:58:11.841Z,1.30
2022-12-23T01:01:00.731Z,1.50
2022-12-23T01:03:49.509Z,1.60
2022-12-23T01:06:20.554Z,1.40
2022-12-23T01:08:51.159Z,1.80
2022-12-23T01:11:21.837Z,1.50
2022-12-23T01:13:52.541Z,1.40
2022-12-23T01:16:23.317Z,1.60
2022-12-23T01:18:54.048Z,1.10
2022-12-23T01:21:24.706Z,1.60
2022-12-23T01:23:55.460Z,1.30
2022-12-23T01:26:26.274Z,1.50
2022-12-23T01:28:58.147Z,1.60
2022-12-23T01:31:30.193Z,1.60
2022-12-23T01:34:00.980Z,2.10
2022-12-23T01:36:32.136Z,1.30
2022-12-23T01:39:02.942Z,1.30
2022-12-23T01:41:52.348Z,1.20
2022-12-23T01:44:55.034Z,1.40
2022-12-23T01:47:35.320Z,1.30
2022-12-23T01:50:10.820Z,1.20
2022-12-23T01:52:47.152Z,2.00
2022-12-23T01:55:24.533Z,1.50
2022-12-23T01:57:57.823Z,1.40
2022-12-23T02:00:46.250Z,1.50
2022-12-23T02:03:34.588Z,1.50
2022-12-23T02:06:20.095Z,1.60
2022-12-23T02:09:08.485Z,1.30
2022-12-23T02:11:54.715Z,1.20
2022-12-23T02:14:57.992Z,1.20
2022-12-23T02:17:36.728Z,1.10
2022-12-23T02:20:37.789Z,1.20
2022-12-23T02:23:27.556Z,2.00
2022-12-23T02:26:19.110Z,1.20
2022-12-23T02:29:24.127Z,1.20
2022-12-23T02:32:02.776Z,1.30
2022-12-23T02:34:42.028Z,1.30
2022-12-23T02:37:19.817Z,1.30
2022-12-23T02:39:57.099Z,1.50
2022-12-23T02:42:34.553Z,1.30
2022-12-23T02:45:11.993Z,1.40
2022-12-23T02:47:47.788Z,1.40
2022-12-23T02:50:24.328Z,1.40
2022-12-23T02:52:58.395Z,1.70
2022-12-23T02:55:34.098Z,1.10
2022-12-23T02:58:11.643Z,1.50
2022-12-23T03:00:44.616Z,1.60
2022-12-23T03:03:17.227Z,1.10
2022-12-23T03:05:50.367Z,1.20
2022-12-23T03:08:25.659Z,1.20
2022-12-23T03:11:09.708Z,1.20
2022-12-23T03:14:04.684Z,1.30
2022-12-23T03:16:44.002Z,1.10
2022-12-23T03:19:22.617Z,1.00
2022-12-23T03:22:01.685Z,1.00
2022-12-23T03:24:40.680Z,1.50
2022-12-23T03:27:17.454Z,2.00
2022-12-23T03:29:56.001Z,1.40
2022-12-23T03:32:29.569Z,1.50
2022-12-23T03:35:03.291Z,1.00
2022-12-23T03:40:11.997Z,1.10
2022-12-23T03:42:46.591Z,1.10
2022-12-23T03:45:39.903Z,2.20
2022-12-23T03:48:17.509Z,2.00
2022-12-23T03:50:50.904Z,1.30
2022-12-23T03:53:28.902Z,1.10
2022-12-23T03:56:05.045Z,1.40
2022-12-23T03:58:42.879Z,2.20
2022-12-23T04:01:20.076Z,1.60
2022-12-23T04:04:01.336Z,1.20
2022-12-23T04:06:43.552Z,1.10
2022-12-23T04:09:21.522Z,1.20
2022-12-23T04:11:53.602Z,1.20
2022-12-23T04:14:25.356Z,1.70
2022-12-23T04:16:59.353Z,1.40
2022-12-23T04:19:30.220Z,0.80
2022-12-23T04:22:01.091Z,1.60
2022-12-23T04:24:31.979Z,2.00
2022-12-23T04:27:02.651Z,1.00
2022-12-23T04:29:35.964Z,1.80
2022-12-23T04:32:07.245Z,1.00
2022-12-23T04:34:38.215Z,1.20
2022-12-23T04:37:09.117Z,1.40
2022-12-23T04:39:40.066Z,1.10
2022-12-23T04:42:11.022Z,2.40
2022-12-23T04:44:41.612Z,0.70
2022-12-23T04:47:12.327Z,0.90
2022-12-23T04:49:42.931Z,1.20
2022-12-23T04:52:13.658Z,1.00
2022-12-23T04:54:46.451Z,1.00
2022-12-23T04:57:17.873Z,1.20
2022-12-23T04:59:48.458Z,1.30
2022-12-23T05:02:19.241Z,1.10
2022-12-23T05:04:50.262Z,1.30
2022-12-23T05:07:21.103Z,1.10
2022-12-23T05:09:51.771Z,0.80
2022-12-23T05:12:22.497Z,0.90
2022-12-23T05:14:53.298Z,1.30
2022-12-23T05:17:24.248Z,0.80
2022-12-23T05:19:54.910Z,0.90
2022-12-23T05:22:25.636Z,0.80
2022-12-23T05:24:56.360Z,1.00
2022-12-23T05:27:27.010Z,0.80
2022-12-23T05:29:57.734Z,1.20
2022-12-23T05:32:28.543Z,1.30
2022-12-23T05:34:59.308Z,1.00
2022-12-23T05:37:30.051Z,0.80
2022-12-23T05:40:00.695Z,1.20
2022-12-23T05:42:31.633Z,0.70
2022-12-23T05:45:02.306Z,0.80
2022-12-23T05:47:33.179Z,0.80
2022-12-23T05:50:04.151Z,1.70
2022-12-23T05:52:35.350Z,1.20
2022-12-23T05:55:06.695Z,0.80
2022-12-23T05:57:37.376Z,0.80
2022-12-23T06:00:10.660Z,1.40
2022-12-23T06:02:41.531Z,0.60
2022-12-23T06:05:13.604Z,0.90
2022-12-23T06:07:44.681Z,1.20
2022-12-23T06:10:15.459Z,0.80
2022-12-23T06:12:46.156Z,1.80
2022-12-23T06:15:17.474Z,1.30
2022-12-23T06:17:48.554Z,0.70
2022-12-23T06:20:20.917Z,1.10
2022-12-23T06:22:52.185Z,0.80
2022-12-23T06:25:23.171Z,1.10
2022-12-23T06:27:53.821Z,0.70
2022-12-23T06:30:24.524Z,1.00
2022-12-23T06:32:55.286Z,1.00
2022-12-23T06:35:26.150Z,0.80
2022-12-23T06:37:56.822Z,0.90
2022-12-23T06:40:29.268Z,1.20
2022-12-23T06:43:00.181Z,0.70
2022-12-23T06:45:31.290Z,1.40
2022-12-23T06:48:02.069Z,0.90
2022-12-23T06:50:33.014Z,0.70
2022-12-23T06:53:03.707Z,0.90
2022-12-23T06:55:34.415Z,0.80
2022-12-23T06:58:05.350Z,0.70
2022-12-23T07:00:36.178Z,0.90
2022-12-23T07:03:07.068Z,0.70
2022-12-23T07:05:38.261Z,1.30
2022-12-23T07:08:09.564Z,1.40
2022-12-23T07:10:40.353Z,0.50
2022-12-23T07:13:11.079Z,0.50
2022-12-23T07:15:42.432Z,0.80
2022-12-23T07:18:13.211Z,0.60
2022-12-23T07:20:43.952Z,0.80
2022-12-23T07:23:14.853Z,0.50
2022-12-23T07:25:45.829Z,3.00
2022-12-23T07:28:16.625Z,1.60
2022-12-23T07:30:47.644Z,2.60
2022-12-23T07:33:18.705Z,1.60
2022-12-23T07:35:49.530Z,5.60
2022-12-23T07:38:20.308Z,3.80
2022-12-23T07:40:52.987Z,1.60
2022-12-23T07:43:23.734Z,0.90
2022-12-23T07:45:59.813Z,2.20
2022-12-23T07:48:31.388Z,3.70
2022-12-23T07:51:04.901Z,3.10
2022-12-23T07:53:35.675Z,2.80
2022-12-23T07:56:07.559Z,1.60
2022-12-23T07:58:38.183Z,2.00
2022-12-23T08:01:09.342Z,1.70
2022-12-23T08:03:40.217Z,4.50
2022-12-23T08:06:13.513Z,1.00
2022-12-23T08:08:46.375Z,2.20
2022-12-23T08:11:18.160Z,7.00
2022-12-23T08:13:49.632Z,3.00
2022-12-23T08:16:20.551Z,1.90
2022-12-23T08:18:51.446Z,5.10
2022-12-23T08:21:22.450Z,5.90
2022-12-23T08:23:54.250Z,6.00
2022-12-23T08:26:26.216Z,5.10
2022-12-23T08:28:57.229Z,2.90
2022-12-23T08:31:32.043Z,3.50
2022-12-23T08:34:03.606Z,1.80
2022-12-23T08:36:36.181Z,2.60
2022-12-23T08:39:11.369Z,1.50
2022-12-23T08:41:46.197Z,1.80
2022-12-23T08:44:17.550Z,3.10
2022-12-23T08:46:48.577Z,3.60
2022-12-23T08:49:19.395Z,2.30
2022-12-23T08:51:50.798Z,3.40
2022-12-23T08:54:22.380Z,1.10
2022-12-23T08:56:53.097Z,3.90
2022-12-23T08:59:24.032Z,2.30
2022-12-23T09:01:54.835Z,1.60
2022-12-23T09:04:25.658Z,4.70
2022-12-23T09:06:56.364Z,2.60
2022-12-23T09:09:27.127Z,2.10
2022-12-23T09:11:57.929Z,0.70
2022-12-23T09:14:29.067Z,2.50
2022-12-23T09:16:59.841Z,1.60
2022-12-23T09:19:30.550Z,1.60
2022-12-23T09:22:01.432Z,0.90
2022-12-23T09:24:32.655Z,5.30
2022-12-23T09:27:03.473Z,1.40
2022-12-23T09:29:34.181Z,1.30
2022-12-23T09:32:04.951Z,1.40
2022-12-23T09:34:36.100Z,2.20
2022-12-23T09:37:06.936Z,2.60
2022-12-23T09:39:37.780Z,1.60
2022-12-23T09:42:44.966Z,1.30
2022-12-23T09:45:26.938Z,1.60
2022-12-23T09:47:58.751Z,2.50
2022-12-23T09:50:33.619Z,1.80
2022-12-23T09:53:07.815Z,2.90
2022-12-23T09:55:47.727Z,2.70
2022-12-23T09:58:28.565Z,1.30
2022-12-23T10:01:12.068Z,1.50
2022-12-23T10:04:17.042Z,0.80
2022-12-23T10:06:56.256Z,1.80
2022-12-23T10:09:31.304Z,2.30
2022-12-23T10:12:07.228Z,0.90
2022-12-23T10:14:39.217Z,4.90
2022-12-23T10:17:15.832Z,1.70
2022-12-23T10:19:49.575Z,1.50
2022-12-23T10:24:55.257Z,3.10
2022-12-23T10:27:32.579Z,1.50
2022-12-23T10:30:33.795Z,1.70
2022-12-23T10:33:09.936Z,4.80
2022-12-23T10:35:50.015Z,2.60
2022-12-23T10:38:34.942Z,2.90
2022-12-23T10:41:13.390Z,1.50
2022-12-23T10:44:01.694Z,1.50
2022-12-23T10:46:43.281Z,1.50
2022-12-23T10:49:24.451Z,0.80
2022-12-23T10:51:59.136Z,1.80
2022-12-23T10:54:34.948Z,2.20
2022-12-23T10:57:08.376Z,1.70
2022-12-23T10:59:39.600Z,0.90
2022-12-23T11:02:31.651Z,1.60
2022-12-23T11:05:02.765Z,0.80
2022-12-23T11:07:44.550Z,2.20
2022-12-23T11:10:22.171Z,1.50
2022-12-23T11:12:54.724Z,1.20
2022-12-23T11:15:32.225Z,1.20
2022-12-23T11:18:17.649Z,1.60
2022-12-23T11:21:04.587Z,0.90
2022-12-23T11:23:37.230Z,0.50
2022-12-23T11:26:11.697Z,0.80
2022-12-23T11:28:50.782Z,1.80
2022-12-23T11:31:32.614Z,1.80
2022-12-23T11:34:05.458Z,1.00
2022-12-23T11:36:37.274Z,1.50
2022-12-23T11:39:17.890Z,1.00
2022-12-23T11:41:51.259Z,0.60
2022-12-23T11:44:27.635Z,1.70
2022-12-23T11:46:58.748Z,0.90
2022-12-23T11:49:32.513Z,1.20
2022-12-23T11:52:12.906Z,0.60
2022-12-23T11:54:54.407Z,1.60
2022-12-23T11:57:39.984Z,1.40
2022-12-23T12:00:22.851Z,2.50
2022-12-23T12:02:56.461Z,1.30
2022-12-23T12:08:06.105Z,0.70
2022-12-23T12:10:39.068Z,1.80
2022-12-23T12:13:23.225Z,3.40
2022-12-23T12:16:04.491Z,0.80
2022-12-23T12:18:36.262Z,0.70
2022-12-23T12:21:12.388Z,1.90
2022-12-23T12:23:48.916Z,1.30
2022-12-23T12:26:26.476Z,1.50
2022-12-23T12:29:04.108Z,0.80
2022-12-23T12:31:40.831Z,0.70
2022-12-23T12:34:26.889Z,1.40
2022-12-23T12:37:02.063Z,2.30
2022-12-23T12:39:37.163Z,0.80
2022-12-23T12:42:15.994Z,0.70
2022-12-23T12:44:59.619Z,1.80
2022-12-23T12:47:53.716Z,1.30
2022-12-23T12:50:30.339Z,0.60
2022-12-23T12:53:05.157Z,1.40
2022-12-23T12:55:42.288Z,2.30
2022-12-23T12:58:19.885Z,1.80
2022-12-23T13:01:00.557Z,1.80
2022-12-23T13:03:56.625Z,1.00
2022-12-23T13:06:37.441Z,0.70
2022-12-23T13:09:17.217Z,1.50
2022-12-23T13:14:34.852Z,0.80
2022-12-23T13:17:15.554Z,1.20
2022-12-23T13:19:52.093Z,1.00
2022-12-23T13:22:29.351Z,1.60
2022-12-23T13:25:05.178Z,0.90
2022-12-23T13:27:40.036Z,1.50
2022-12-23T13:30:15.360Z,1.50
2022-12-23T13:33:05.335Z,1.50
2022-12-23T13:35:44.609Z,1.70
2022-12-23T13:38:29.440Z,1.80
2022-12-23T13:41:09.267Z,2.10
2022-12-23T13:43:48.421Z,1.60
2022-12-23T13:46:39.215Z,1.60
2022-12-23T13:49:18.186Z,1.60
2022-12-23T13:51:55.633Z,4.10
2022-12-23T13:54:37.107Z,1.70
2022-12-23T13:57:20.837Z,1.20
2022-12-23T14:00:05.996Z,1.20
2022-12-23T14:02:53.231Z,3.10
2022-12-23T14:05:36.881Z,2.40
2022-12-23T14:08:21.244Z,2.20
2022-12-23T14:10:57.526Z,2.60
2022-12-23T14:13:31.478Z,1.70
2022-12-23T14:16:26.284Z,1.80
2022-12-23T14:19:23.496Z,1.90
2022-12-23T14:22:07.543Z,3.20
2022-12-23T14:25:21.297Z,3.30
2022-12-23T14:27:59.791Z,5.10
2022-12-23T14:30:37.394Z,3.90
2022-12-23T14:33:29.308Z,3.90
2022-12-23T14:39:05.412Z,1.50
2022-12-23T14:41:52.068Z,3.70
2022-12-23T14:44:45.855Z,2.80
2022-12-23T14:47:40.637Z,3.20
2022-12-23T14:50:39.968Z,2.00
2022-12-23T14:53:25.424Z,2.80
2022-12-23T14:56:21.854Z,2.10
2022-12-23T14:59:15.568Z,1.60
2022-12-23T15:01:51.435Z,2.30
2022-12-23T15:04:26.119Z,1.60
2022-12-23T15:07:00.996Z,1.90
2022-12-23T15:09:36.425Z,1.80
2022-12-23T15:12:15.927Z,1.50
2022-12-23T15:14:52.012Z,2.10
2022-12-23T15:17:29.523Z,2.20
2022-12-23T15:20:13.993Z,1.40
2022-12-23T15:22:46.592Z,2.80
2022-12-23T15:25:26.217Z,2.30
2022-12-23T15:28:01.947Z,2.20
2022-12-23T15:30:35.582Z,1.70
2022-12-23T15:33:28.243Z,1.90
2022-12-23T15:36:05.922Z,1.60
2022-12-23T15:38:39.999Z,2.20
2022-12-23T15:41:18.761Z,1.10
2022-12-23T15:43:49.764Z,1.30
2022-12-23T15:46:28.993Z,2.10
2022-12-23T15:49:01.573Z,1.50
2022-12-23T15:52:05.861Z,1.40
2022-12-23T15:54:32.218Z,1.30
2022-12-23T15:57:04.794Z,1.30
2022-12-23T15:59:38.460Z,0.90
2022-12-23T16:05:09.381Z,1.20
2022-12-23T16:07:42.234Z,1.60
2022-12-23T16:10:20.603Z,1.50
2022-12-23T16:12:53.222Z,1.70
2022-12-23T16:15:29.155Z,1.70
2022-12-23T16:18:21.282Z,4.20
2022-12-23T16:20:54.901Z,1.70
2022-12-23T16:23:30.299Z,2.60
2022-12-23T16:26:02.878Z,3.00
2022-12-23T16:28:41.041Z,2.40
2022-12-23T16:31:15.864Z,2.10
2022-12-23T16:33:50.157Z,3.70
2022-12-23T16:36:33.551Z,5.00
2022-12-23T16:39:15.281Z,2.90
2022-12-23T16:41:46.260Z,3.30
2022-12-23T16:44:17.250Z,2.70
2022-12-23T16:46:50.915Z,2.00
2022-12-23T16:51:52.310Z,2.00
2022-12-23T16:54:23.699Z,1.90
2022-12-23T16:56:54.771Z,2.70
2022-12-23T16:59:26.123Z,3.10
2022-12-23T17:02:03.078Z,1.70
2022-12-23T17:04:34.605Z,1.70
2022-12-23T17:07:10.639Z,1.90
2022-12-23T17:09:41.465Z,2.60
2022-12-23T17:12:13.023Z,2.70
2022-12-23T17:14:43.869Z,2.30
2022-12-23T17:17:17.480Z,1.90
2022-12-23T17:19:48.356Z,1.70
2022-12-23T17:22:19.987Z,1.80
2022-12-23T17:24:50.868Z,1.70
2022-12-23T17:27:22.311Z,1.40
2022-12-23T17:29:53.816Z,1.50
2022-12-23T17:32:25.400Z,1.50
2022-12-23T17:34:57.106Z,2.00
2022-12-23T17:37:31.211Z,2.60
2022-12-23T17:40:02.197Z,2.10
2022-12-23T17:42:33.995Z,1.60
2022-12-23T17:45:05.535Z,1.30
2022-12-23T17:47:36.451Z,1.70
2022-12-23T17:50:09.156Z,2.10
2022-12-23T17:52:40.227Z,1.90
2022-12-23T17:55:20.042Z,2.00
2022-12-23T17:57:51.763Z,2.00
2022-12-23T18:00:31.894Z,2.50
2022-12-23T18:03:07.283Z,1.30
2022-12-23T18:05:38.754Z,2.30
2022-12-23T18:08:10.746Z,1.60
2022-12-23T18:10:42.870Z,1.70
2022-12-23T18:13:18.446Z,1.70
2022-12-23T18:15:49.474Z,2.20
2022-12-23T18:18:30.201Z,2.50
2022-12-23T18:21:08.027Z,4.60
2022-12-23T18:23:39.804Z,8.00
2022-12-23T18:26:15.175Z,7.60
2022-12-23T18:28:46.616Z,5.30
2022-12-23T18:31:21.345Z,4.40
2022-12-23T18:33:53.070Z,3.00
2022-12-23T18:36:27.226Z,5.20
2022-12-23T18:38:59.177Z,3.00
2022-12-23T18:41:30.450Z,3.70
2022-12-23T18:44:01.859Z,7.20
2022-12-23T18:46:33.196Z,4.40
2022-12-23T18:49:04.460Z,6.30
2022-12-23T18:51:35.710Z,4.70
2022-12-23T18:54:07.174Z,4.30
2022-12-23T18:56:38.113Z,4.70
2022-12-23T18:59:10.885Z,2.90
2022-12-23T19:01:41.775Z,3.10
2022-12-23T19:04:13.190Z,4.20
2022-12-23T19:06:44.964Z,4.30
2022-12-23T19:09:20.320Z,3.10
2022-12-23T19:11:52.961Z,2.80
2022-12-23T19:14:24.189Z,3.40
2022-12-23T19:16:55.195Z,4.10
2022-12-23T19:19:26.009Z,4.00
2022-12-23T19:21:57.158Z,4.20
2022-12-23T19:24:28.834Z,2.90
2022-12-23T19:26:59.873Z,1.90
2022-12-23T19:29:31.643Z,2.70
2022-12-23T19:32:02.674Z,3.30
2022-12-23T19:34:33.679Z,3.10
2022-12-23T19:37:20.645Z,3.90
2022-12-23T19:39:52.221Z,4.00
2022-12-23T19:42:23.329Z,2.20
2022-12-23T19:44:54.203Z,3.40
2022-12-23T19:47:25.407Z,2.50
2022-12-23T19:49:56.965Z,3.00
2022-12-23T19:52:28.049Z,3.80
2022-12-23T19:54:58.958Z,2.70
2022-12-23T19:57:30.286Z,2.30
2022-12-23T20:00:02.392Z,1.90
2022-12-23T20:02:33.685Z,2.50
2022-12-23T20:05:05.287Z,1.80
2022-12-23T20:07:38.896Z,2.30
2022-12-23T20:12:42.419Z,2.30
2022-12-23T20:15:16.837Z,2.10
2022-12-23T20:17:47.872Z,2.50
2022-12-23T20:20:19.227Z,2.20
2022-12-23T20:22:50.276Z,2.20
2022-12-23T20:25:21.497Z,1.90
2022-12-23T20:27:53.428Z,2.90
2022-12-23T20:30:24.946Z,3.70
2022-12-23T20:32:57.589Z,2.10
2022-12-23T20:35:28.826Z,2.00
2022-12-23T20:38:00.095Z,7.20
2022-12-23T20:40:31.740Z,2.10
2022-12-23T20:43:04.139Z,3.00
2022-12-23T20:45:36.707Z,5.00
2022-12-23T20:48:15.579Z,2.80
2022-12-23T20:50:47.694Z,2.40
2022-12-23T20:53:19.188Z,3.10
2022-12-23T20:55:51.075Z,2.40
2022-12-23T20:58:40.008Z,2.80
2022-12-23T21:01:14.971Z,3.20
2022-12-23T21:03:46.454Z,2.50
2022-12-23T21:06:20.705Z,3.60
2022-12-23T21:08:52.384Z,4.80
2022-12-23T21:11:24.410Z,3.80
2022-12-23T21:13:58.687Z,3.30
2022-12-23T21:16:36.864Z,4.20
2022-12-23T21:19:10.063Z,4.50
2022-12-23T21:21:41.281Z,4.50
2022-12-23T21:24:13.905Z,3.70
2022-12-23T21:26:49.001Z,5.40
2022-12-23T21:31:56.136Z,3.90
2022-12-23T21:34:27.286Z,3.60
2022-12-23T21:36:58.877Z,2.20
2022-12-23T21:39:30.648Z,3.20
2022-12-23T21:42:01.677Z,3.40
2022-12-23T21:44:33.267Z,4.90
2022-12-23T21:47:04.195Z,4.60
2022-12-23T21:49:35.310Z,3.00
2022-12-23T21:52:06.819Z,3.40
2022-12-23T21:54:37.643Z,2.00
2022-12-23T21:57:08.524Z,3.80
2022-12-23T21:59:39.602Z,3.60
2022-12-23T22:02:12.930Z,2.50
2022-12-23T22:04:44.112Z,2.90
2022-12-23T22:07:14.978Z,2.70
2022-12-23T22:09:46.010Z,3.30
2022-12-23T22:12:16.880Z,3.00
2022-12-23T22:14:48.190Z,2.80
2022-12-23T22:17:19.036Z,3.10
2022-12-23T22:19:50.085Z,3.50
2022-12-23T22:22:21.118Z,2.50
2022-12-23T22:24:51.909Z,3.00
2022-12-23T22:27:22.788Z,2.70
2022-12-23T22:29:54.361Z,3.10
2022-12-23T22:32:25.331Z,2.90
2022-12-23T22:34:56.311Z,2.20
2022-12-23T22:37:27.300Z,3.00
2022-12-23T22:39:58.232Z,3.60
2022-12-23T22:42:31.331Z,3.10
2022-12-23T22:45:02.194Z,3.40
2022-12-23T22:47:33.280Z,3.20
2022-12-23T22:50:04.202Z,3.00
2022-12-23T22:52:34.991Z,4.30
2022-12-23T22:55:06.573Z,4.00
2022-12-23T22:57:37.540Z,2.90
2022-12-23T23:00:12.448Z,3.20
2022-12-23T23:02:43.780Z,3.00
2022-12-23T23:05:14.556Z,3.30
2022-12-23T23:07:45.495Z,4.30
2022-12-23T23:10:16.892Z,3.00
2022-12-23T23:12:47.753Z,3.10
2022-12-23T23:15:18.800Z,3.20
2022-12-23T23:17:49.537Z,2.50
2022-12-23T23:20:20.511Z,2.40
2022-12-23T23:22:52.163Z,3.30
2022-12-23T23:25:23.846Z,2.80
2022-12-23T23:27:54.542Z,2.60
2022-12-23T23:30:25.599Z,4.00
2022-12-23T23:32:56.316Z,3.70
2022-12-23T23:35:27.061Z,2.00
2022-12-23T23:37:57.905Z,3.40
2022-12-23T23:40:28.673Z,3.60
2022-12-23T23:42:59.414Z,3.30
2022-12-23T23:45:30.384Z,2.70
2022-12-23T23:48:01.175Z,3.20
2022-12-23T23:50:31.923Z,2.90
2022-12-23T23:53:02.629Z,2.60
2022-12-23T23:55:33.891Z,2.40
2022-12-23T23:58:05.643Z,2.90
